sensor_id;sensor_type;location;lat;lon;timestamp;pressure;altitude;pressure_sealevel;temperature;humidity
42725;BME280;28369;44.046;23.014;2023-04-30T00:00:03;100817.38;;;16.21;45.73
42725;BME280;28369;44.046;23.014;2023-04-30T00:02:32;100913.22;;;16.86;45.65
42725;BME280;28369;44.046;23.014;2023-04-30T00:04:58;100863.41;;;16.63;45.68
42725;BME280;28369;44.046;23.014;2023-04-30T00:07:23;100916.81;;;16.60;46.04
42725;BME280;28369;44.046;23.014;2023-04-30T00:09:49;100683.69;;;15.38;45.70
42725;BME280;28369;44.046;23.014;2023-04-30T00:12:15;100871.53;;;16.62;45.53
42725;BME280;28369;44.046;23.014;2023-04-30T00:14:41;100865.72;;;16.58;45.58
42725;BME280;28369;44.046;23.014;2023-04-30T00:17:06;100739.41;;;15.89;45.18
42725;BME280;28369;44.046;23.014;2023-04-30T00:19:31;100922.25;;;17.09;45.34
42725;BME280;28369;44.046;23.014;2023-04-30T00:21:57;100940.19;;;17.16;45.36
42725;BME280;28369;44.046;23.014;2023-04-30T00:24:26;100720.28;;;15.35;46.10
42725;BME280;28369;44.046;23.014;2023-04-30T00:26:51;100928.03;;;16.88;45.69
42725;BME280;28369;44.046;23.014;2023-04-30T00:29:17;100877.63;;;16.03;46.58
42725;BME280;28369;44.046;23.014;2023-04-30T00:31:42;100906.91;;;16.19;46.78
42725;BME280;28369;44.046;23.014;2023-04-30T00:34:08;100783.16;;;15.67;46.44
42725;BME280;28369;44.046;23.014;2023-04-30T00:36:33;100889.53;;;15.99;46.39
42725;BME280;28369;44.046;23.014;2023-04-30T00:38:59;100819.34;;;15.77;46.45
42725;BME280;28369;44.046;23.014;2023-04-30T00:41:24;100938.63;;;16.37;46.82
42725;BME280;28369;44.046;23.014;2023-04-30T00:43:50;100930.50;;;16.31;47.07
42725;BME280;28369;44.046;23.014;2023-04-30T00:46:15;100801.56;;;15.69;46.71
42725;BME280;28369;44.046;23.014;2023-04-30T00:48:41;100847.00;;;16.09;46.32
42725;BME280;28369;44.046;23.014;2023-04-30T00:51:06;100718.41;;;15.27;46.09
42725;BME280;28369;44.046;23.014;2023-04-30T00:53:33;100906.16;;;16.44;45.89
42725;BME280;28369;44.046;23.014;2023-04-30T00:55:59;100880.25;;;16.29;45.75
42725;BME280;28369;44.046;23.014;2023-04-30T00:58:25;100818.81;;;15.99;45.92
42725;BME280;28369;44.046;23.014;2023-04-30T01:00:50;100904.16;;;16.46;46.06
42725;BME280;28369;44.046;23.014;2023-04-30T01:03:16;100918.13;;;16.56;46.88
42725;BME280;28369;44.046;23.014;2023-04-30T01:05:42;100741.97;;;15.38;47.34
42725;BME280;28369;44.046;23.014;2023-04-30T01:08:08;100835.09;;;16.13;47.11
42725;BME280;28369;44.046;23.014;2023-04-30T01:10:49;100920.69;;;16.74;46.78
42725;BME280;28369;44.046;23.014;2023-04-30T01:13:28;100946.41;;;16.82;47.65
42725;BME280;28369;44.046;23.014;2023-04-30T01:16:01;100629.56;;;14.98;47.42
42725;BME280;28369;44.046;23.014;2023-04-30T01:18:47;100892.38;;;16.99;46.63
42725;BME280;28369;44.046;23.014;2023-04-30T01:21:14;100943.34;;;17.19;46.77
42725;BME280;28369;44.046;23.014;2023-04-30T01:24:00;100717.44;;;16.22;45.75
42725;BME280;28369;44.046;23.014;2023-04-30T01:29:18;100736.31;;;16.11;45.78
42725;BME280;28369;44.046;23.014;2023-04-30T01:31:44;100900.66;;;17.04;45.41
42725;BME280;28369;44.046;23.014;2023-04-30T01:34:10;100920.94;;;17.30;45.28
42725;BME280;28369;44.046;23.014;2023-04-30T01:42:21;100878.09;;;17.17;46.10
42725;BME280;28369;44.046;23.014;2023-04-30T01:45:18;100936.84;;;17.88;45.65
42725;BME280;28369;44.046;23.014;2023-04-30T01:48:25;100923.75;;;17.12;46.58
42725;BME280;28369;44.046;23.014;2023-04-30T01:50:59;100507.69;;;14.47;46.94
42725;BME280;28369;44.046;23.014;2023-04-30T01:53:39;100907.00;;;17.28;46.30
42725;BME280;28369;44.046;23.014;2023-04-30T01:56:10;100882.88;;;17.46;45.58
42725;BME280;28369;44.046;23.014;2023-04-30T01:58:37;100908.47;;;17.64;45.57
42725;BME280;28369;44.046;23.014;2023-04-30T02:01:04;100873.75;;;17.57;45.75
42725;BME280;28369;44.046;23.014;2023-04-30T02:03:31;100675.97;;;16.37;45.32
42725;BME280;28369;44.046;23.014;2023-04-30T02:05:57;100885.16;;;17.90;45.29
42725;BME280;28369;44.046;23.014;2023-04-30T02:08:23;100732.69;;;16.94;45.43
42725;BME280;28369;44.046;23.014;2023-04-30T02:10:49;100887.31;;;17.95;45.00
42725;BME280;28369;44.046;23.014;2023-04-30T02:13:14;100858.91;;;17.79;44.84
42725;BME280;28369;44.046;23.014;2023-04-30T02:15:40;100897.50;;;18.23;44.63
42725;BME280;28369;44.046;23.014;2023-04-30T02:18:05;100725.88;;;17.16;44.45
42725;BME280;28369;44.046;23.014;2023-04-30T02:20:31;100696.00;;;17.06;44.13
42725;BME280;28369;44.046;23.014;2023-04-30T02:22:56;100891.84;;;18.26;44.18
42725;BME280;28369;44.046;23.014;2023-04-30T02:25:22;100849.03;;;18.04;44.08
42725;BME280;28369;44.046;23.014;2023-04-30T02:27:47;100919.69;;;18.46;44.35
42725;BME280;28369;44.046;23.014;2023-04-30T02:30:14;100873.91;;;18.20;44.16
42725;BME280;28369;44.046;23.014;2023-04-30T02:32:40;100843.44;;;17.83;44.41
42725;BME280;28369;44.046;23.014;2023-04-30T02:35:06;100919.22;;;18.35;44.35
42725;BME280;28369;44.046;23.014;2023-04-30T02:37:31;100790.38;;;17.50;44.33
42725;BME280;28369;44.046;23.014;2023-04-30T02:39:57;100900.84;;;18.25;44.46
42725;BME280;28369;44.046;23.014;2023-04-30T02:42:22;100757.56;;;17.18;44.59
42725;BME280;28369;44.046;23.014;2023-04-30T02:44:48;100890.44;;;17.99;44.66
42725;BME280;28369;44.046;23.014;2023-04-30T02:47:13;100873.38;;;17.68;45.02
42725;BME280;28369;44.046;23.014;2023-04-30T02:49:39;100802.22;;;17.31;45.25
42725;BME280;28369;44.046;23.014;2023-04-30T02:52:04;100825.28;;;17.38;44.82
42725;BME280;28369;44.046;23.014;2023-04-30T02:54:31;100919.50;;;18.08;45.16
42725;BME280;28369;44.046;23.014;2023-04-30T02:56:56;100924.22;;;17.98;45.35
42725;BME280;28369;44.046;23.014;2023-04-30T02:59:22;100867.94;;;17.45;45.46
42725;BME280;28369;44.046;23.014;2023-04-30T03:01:47;100855.19;;;17.07;46.02
42725;BME280;28369;44.046;23.014;2023-04-30T03:04:13;100718.09;;;16.32;45.87
42725;BME280;28369;44.046;23.014;2023-04-30T03:06:38;100856.84;;;17.17;45.91
42725;BME280;28369;44.046;23.014;2023-04-30T03:09:04;100847.38;;;16.89;46.58
42725;BME280;28369;44.046;23.014;2023-04-30T03:11:29;100775.25;;;15.76;47.75
42725;BME280;28369;44.046;23.014;2023-04-30T03:13:55;100858.78;;;16.14;48.24
42725;BME280;28369;44.046;23.014;2023-04-30T03:16:20;100884.25;;;16.33;47.87
42725;BME280;28369;44.046;23.014;2023-04-30T03:18:47;100859.88;;;16.38;47.77
42725;BME280;28369;44.046;23.014;2023-04-30T03:21:13;100864.75;;;16.67;47.15
42725;BME280;28369;44.046;23.014;2023-04-30T03:23:39;100838.53;;;16.64;46.76
42725;BME280;28369;44.046;23.014;2023-04-30T03:26:05;100940.19;;;17.24;46.64
42725;BME280;28369;44.046;23.014;2023-04-30T03:28:30;100909.66;;;17.03;46.75
42725;BME280;28369;44.046;23.014;2023-04-30T03:30:56;100915.59;;;16.97;46.76
42725;BME280;28369;44.046;23.014;2023-04-30T03:33:23;100681.31;;;15.70;46.80
42725;BME280;28369;44.046;23.014;2023-04-30T03:35:48;100824.94;;;16.59;46.90
42725;BME280;28369;44.046;23.014;2023-04-30T03:38:16;100871.31;;;16.98;46.34
42725;BME280;28369;44.046;23.014;2023-04-30T03:40:41;100856.78;;;16.67;46.82
42725;BME280;28369;44.046;23.014;2023-04-30T03:43:06;100915.47;;;17.15;46.68
42725;BME280;28369;44.046;23.014;2023-04-30T03:45:32;100958.97;;;17.47;46.23
42725;BME280;28369;44.046;23.014;2023-04-30T03:47:57;100705.00;;;15.71;46.20
42725;BME280;28369;44.046;23.014;2023-04-30T03:50:23;100946.34;;;17.08;46.34
42725;BME280;28369;44.046;23.014;2023-04-30T03:52:48;100928.22;;;17.12;46.22
42725;BME280;28369;44.046;23.014;2023-04-30T03:55:14;100939.50;;;16.97;46.31
42725;BME280;28369;44.046;23.014;2023-04-30T03:57:39;100890.97;;;16.62;46.09
42725;BME280;28369;44.046;23.014;2023-04-30T04:00:06;100961.78;;;17.21;46.16
42725;BME280;28369;44.046;23.014;2023-04-30T04:02:32;100754.75;;;16.95;44.85
42725;BME280;28369;44.046;23.014;2023-04-30T04:04:58;100680.81;;;17.31;43.40
42725;BME280;28369;44.046;23.014;2023-04-30T04:07:24;100819.88;;;18.97;41.89
42725;BME280;28369;44.046;23.014;2023-04-30T04:09:49;100882.25;;;19.94;41.00
42725;BME280;28369;44.046;23.014;2023-04-30T04:12:15;100945.81;;;20.86;39.41
42725;BME280;28369;44.046;23.014;2023-04-30T04:14:40;100875.00;;;20.97;38.70
42725;BME280;28369;44.046;23.014;2023-04-30T04:17:06;100917.78;;;22.10;37.59
42725;BME280;28369;44.046;23.014;2023-04-30T04:19:32;100893.44;;;22.34;36.99
42725;BME280;28369;44.046;23.014;2023-04-30T04:21:57;100931.28;;;22.99;36.15
42725;BME280;28369;44.046;23.014;2023-04-30T04:24:24;100907.22;;;23.26;35.38
42725;BME280;28369;44.046;23.014;2023-04-30T04:26:49;100944.75;;;23.66;35.32
42725;BME280;28369;44.046;23.014;2023-04-30T04:29:15;100862.03;;;23.50;34.55
42725;BME280;28369;44.046;23.014;2023-04-30T04:31:41;100967.19;;;24.25;34.58
42725;BME280;28369;44.046;23.014;2023-04-30T04:34:07;100839.81;;;24.01;34.04
42725;BME280;28369;44.046;23.014;2023-04-30T04:36:32;100776.25;;;23.88;33.22
42725;BME280;28369;44.046;23.014;2023-04-30T04:38:59;100972.63;;;25.02;33.27
42725;BME280;28369;44.046;23.014;2023-04-30T04:41:34;100933.13;;;25.28;32.46
42725;BME280;28369;44.046;23.014;2023-04-30T04:44:00;100978.59;;;25.87;32.19
42725;BME280;28369;44.046;23.014;2023-04-30T04:46:31;100984.50;;;26.21;32.09
42725;BME280;28369;44.046;23.014;2023-04-30T04:49:22;100979.44;;;26.43;31.40
42725;BME280;28369;44.046;23.014;2023-04-30T04:51:48;100962.09;;;26.39;31.28
42725;BME280;28369;44.046;23.014;2023-04-30T04:54:13;100976.81;;;26.73;30.78
42725;BME280;28369;44.046;23.014;2023-04-30T04:56:39;100954.91;;;26.82;30.99
42725;BME280;28369;44.046;23.014;2023-04-30T04:59:09;100937.66;;;26.71;30.78
42725;BME280;28369;44.046;23.014;2023-04-30T05:01:34;100802.19;;;26.15;30.88
42725;BME280;28369;44.046;23.014;2023-04-30T05:04:00;100932.88;;;27.51;30.46
42725;BME280;28369;44.046;23.014;2023-04-30T05:06:26;100854.25;;;27.12;29.85
42725;BME280;28369;44.046;23.014;2023-04-30T05:08:51;100933.72;;;27.87;30.16
42725;BME280;28369;44.046;23.014;2023-04-30T05:11:16;100991.72;;;28.60;29.71
42725;BME280;28369;44.046;23.014;2023-04-30T05:13:42;100841.06;;;27.74;29.07
42725;BME280;28369;44.046;23.014;2023-04-30T05:16:07;100986.03;;;29.03;29.27
42725;BME280;28369;44.046;23.014;2023-04-30T05:18:33;100917.72;;;28.95;29.09
42725;BME280;28369;44.046;23.014;2023-04-30T05:20:58;100974.69;;;28.89;29.02
42725;BME280;28369;44.046;23.014;2023-04-30T05:23:24;100976.44;;;28.66;29.71
42725;BME280;28369;44.046;23.014;2023-04-30T05:25:52;100990.41;;;29.55;28.95
42725;BME280;28369;44.046;23.014;2023-04-30T05:28:19;100967.19;;;29.59;29.07
42725;BME280;28369;44.046;23.014;2023-04-30T05:30:44;100991.16;;;29.33;28.45
42725;BME280;28369;44.046;23.014;2023-04-30T05:33:10;100986.88;;;29.88;28.17
42725;BME280;28369;44.046;23.014;2023-04-30T05:35:36;100827.13;;;28.81;28.08
42725;BME280;28369;44.046;23.014;2023-04-30T05:38:01;100747.91;;;29.03;27.75
42725;BME280;28369;44.046;23.014;2023-04-30T05:40:28;100950.81;;;30.32;27.69
42725;BME280;28369;44.046;23.014;2023-04-30T05:42:53;100971.91;;;30.25;28.15
42725;BME280;28369;44.046;23.014;2023-04-30T05:45:19;100958.84;;;29.26;28.37
42725;BME280;28369;44.046;23.014;2023-04-30T05:47:44;100962.72;;;27.56;30.70
42725;BME280;28369;44.046;23.014;2023-04-30T05:50:10;100974.25;;;26.79;32.07
42725;BME280;28369;44.046;23.014;2023-04-30T05:52:36;100931.44;;;25.78;33.16
42725;BME280;28369;44.046;23.014;2023-04-30T05:55:01;100719.19;;;24.31;34.40
42725;BME280;28369;44.046;23.014;2023-04-30T05:57:28;100994.41;;;26.02;34.07
42725;BME280;28369;44.046;23.014;2023-04-30T05:59:53;100951.09;;;25.60;34.83
42725;BME280;28369;44.046;23.014;2023-04-30T06:02:19;100962.31;;;25.57;34.98
42725;BME280;28369;44.046;23.014;2023-04-30T06:04:44;100989.06;;;25.77;34.94
42725;BME280;28369;44.046;23.014;2023-04-30T06:07:10;100973.78;;;25.70;35.11
42725;BME280;28369;44.046;23.014;2023-04-30T06:09:35;100801.00;;;23.97;37.27
42725;BME280;28369;44.046;23.014;2023-04-30T06:12:01;100666.94;;;23.11;36.93
42725;BME280;28369;44.046;23.014;2023-04-30T06:14:28;100986.50;;;24.54;37.55
42725;BME280;28369;44.046;23.014;2023-04-30T06:16:53;100823.78;;;23.68;37.36
42725;BME280;28369;44.046;23.014;2023-04-30T06:22:02;100951.31;;;25.33;35.57
42725;BME280;28369;44.046;23.014;2023-04-30T06:24:28;100826.28;;;24.60;35.75
42725;BME280;28369;44.046;23.014;2023-04-30T06:26:54;101003.81;;;25.93;35.60
42725;BME280;28369;44.046;23.014;2023-04-30T06:29:20;100982.78;;;25.83;35.70
42725;BME280;28369;44.046;23.014;2023-04-30T06:31:45;100895.56;;;25.15;35.85
42725;BME280;28369;44.046;23.014;2023-04-30T06:34:11;100954.84;;;25.59;36.30
42725;BME280;28369;44.046;23.014;2023-04-30T06:36:36;100917.09;;;25.65;34.91
42725;BME280;28369;44.046;23.014;2023-04-30T06:39:01;100931.59;;;26.08;34.61
42725;BME280;28369;44.046;23.014;2023-04-30T06:41:27;100844.13;;;25.05;35.31
42725;BME280;28369;44.046;23.014;2023-04-30T06:43:52;100991.59;;;26.52;34.41
42725;BME280;28369;44.046;23.014;2023-04-30T06:46:18;100644.38;;;23.33;36.01
42725;BME280;28369;44.046;23.014;2023-04-30T06:48:43;100928.63;;;25.73;34.18
42725;BME280;28369;44.046;23.014;2023-04-30T06:51:09;100979.59;;;25.67;34.86
42725;BME280;28369;44.046;23.014;2023-04-30T06:53:34;100971.31;;;26.31;35.65
42725;BME280;28369;44.046;23.014;2023-04-30T06:56:00;101003.06;;;26.97;33.14
42725;BME280;28369;44.046;23.014;2023-04-30T06:58:26;100897.09;;;26.78;34.78
42725;BME280;28369;44.046;23.014;2023-04-30T07:00:51;100998.75;;;27.50;32.61
42725;BME280;28369;44.046;23.014;2023-04-30T07:03:17;100957.22;;;27.08;32.81
42725;BME280;28369;44.046;23.014;2023-04-30T07:05:43;100918.25;;;26.93;33.49
42725;BME280;28369;44.046;23.014;2023-04-30T07:08:08;100925.03;;;27.37;33.14
42725;BME280;28369;44.046;23.014;2023-04-30T07:10:33;100933.94;;;27.62;32.09
42725;BME280;28369;44.046;23.014;2023-04-30T07:12:59;100977.50;;;28.13;31.66
42725;BME280;28369;44.046;23.014;2023-04-30T07:15:24;100866.34;;;27.33;32.12
42725;BME280;28369;44.046;23.014;2023-04-30T07:17:50;100961.94;;;28.32;32.80
42725;BME280;28369;44.046;23.014;2023-04-30T07:20:15;100985.13;;;28.68;32.24
42725;BME280;28369;44.046;23.014;2023-04-30T07:22:42;100968.28;;;28.95;30.41
42725;BME280;28369;44.046;23.014;2023-04-30T07:25:12;100847.44;;;27.56;30.39
42725;BME280;28369;44.046;23.014;2023-04-30T07:27:38;100907.28;;;27.89;30.50
42725;BME280;28369;44.046;23.014;2023-04-30T07:30:04;100801.94;;;27.13;30.81
42725;BME280;28369;44.046;23.014;2023-04-30T07:32:30;100991.34;;;27.81;31.38
42725;BME280;28369;44.046;23.014;2023-04-30T07:34:56;100963.50;;;27.92;31.55
42725;BME280;28369;44.046;23.014;2023-04-30T07:37:22;100961.41;;;27.94;31.53
42725;BME280;28369;44.046;23.014;2023-04-30T07:39:47;100966.47;;;27.79;31.13
42725;BME280;28369;44.046;23.014;2023-04-30T07:42:13;100954.38;;;27.69;31.48
42725;BME280;28369;44.046;23.014;2023-04-30T07:44:38;100926.56;;;27.57;32.36
42725;BME280;28369;44.046;23.014;2023-04-30T07:47:04;100958.97;;;28.04;31.04
42725;BME280;28369;44.046;23.014;2023-04-30T07:49:30;100768.13;;;26.75;31.25
42725;BME280;28369;44.046;23.014;2023-04-30T07:51:55;100984.13;;;26.85;34.18
42725;BME280;28369;44.046;23.014;2023-04-30T07:54:22;100828.00;;;27.42;33.13
42725;BME280;28369;44.046;23.014;2023-04-30T07:56:47;100964.47;;;28.09;31.07
42725;BME280;28369;44.046;23.014;2023-04-30T07:59:13;100919.50;;;27.80;31.81
42725;BME280;28369;44.046;23.014;2023-04-30T08:01:39;100974.66;;;28.31;31.22
42725;BME280;28369;44.046;23.014;2023-04-30T08:04:04;100989.47;;;28.28;30.82
42725;BME280;28369;44.046;23.014;2023-04-30T08:06:31;100871.47;;;27.82;31.94
42725;BME280;28369;44.046;23.014;2023-04-30T08:08:56;100960.84;;;28.04;31.67
42725;BME280;28369;44.046;23.014;2023-04-30T08:11:22;100957.44;;;27.97;32.33
42725;BME280;28369;44.046;23.014;2023-04-30T08:13:47;100936.16;;;28.00;31.45
42725;BME280;28369;44.046;23.014;2023-04-30T08:16:12;100956.78;;;28.59;31.99
42725;BME280;28369;44.046;23.014;2023-04-30T08:18:38;100819.50;;;27.51;32.11
42725;BME280;28369;44.046;23.014;2023-04-30T08:21:08;100882.66;;;27.62;31.76
42725;BME280;28369;44.046;23.014;2023-04-30T08:23:33;100913.38;;;27.84;31.53
42725;BME280;28369;44.046;23.014;2023-04-30T08:25:59;100957.78;;;28.00;31.19
42725;BME280;28369;44.046;23.014;2023-04-30T08:28:24;100791.13;;;27.48;31.02
42725;BME280;28369;44.046;23.014;2023-04-30T08:30:50;100941.78;;;28.22;31.37
42725;BME280;28369;44.046;23.014;2023-04-30T08:33:15;100975.47;;;28.32;31.53
42725;BME280;28369;44.046;23.014;2023-04-30T08:35:41;100986.78;;;28.57;30.74
42725;BME280;28369;44.046;23.014;2023-04-30T08:38:06;100924.84;;;28.85;29.56
42725;BME280;28369;44.046;23.014;2023-04-30T08:40:34;100971.09;;;28.42;31.89
42725;BME280;28369;44.046;23.014;2023-04-30T08:43:07;100947.47;;;27.50;32.14
42725;BME280;28369;44.046;23.014;2023-04-30T08:45:35;100909.59;;;27.97;32.00
42725;BME280;28369;44.046;23.014;2023-04-30T08:48:04;100964.09;;;28.87;29.69
42725;BME280;28369;44.046;23.014;2023-04-30T08:50:30;100875.56;;;28.37;29.78
42725;BME280;28369;44.046;23.014;2023-04-30T08:52:59;100868.19;;;27.68;30.85
42725;BME280;28369;44.046;23.014;2023-04-30T08:55:26;100930.44;;;27.73;31.24
42725;BME280;28369;44.046;23.014;2023-04-30T08:57:52;100961.31;;;27.41;31.52
42725;BME280;28369;44.046;23.014;2023-04-30T09:00:17;100970.69;;;28.10;31.65
42725;BME280;28369;44.046;23.014;2023-04-30T09:02:43;100955.66;;;27.55;31.68
42725;BME280;28369;44.046;23.014;2023-04-30T09:05:11;100957.88;;;26.92;32.78
42725;BME280;28369;44.046;23.014;2023-04-30T09:07:42;100882.50;;;27.09;32.84
42725;BME280;28369;44.046;23.014;2023-04-30T09:10:21;100793.38;;;24.58;34.26
42725;BME280;28369;44.046;23.014;2023-04-30T09:13:03;100962.81;;;25.47;34.88
42725;BME280;28369;44.046;23.014;2023-04-30T09:15:30;100960.88;;;26.53;34.18
42725;BME280;28369;44.046;23.014;2023-04-30T09:18:15;100927.16;;;26.32;35.38
42725;BME280;28369;44.046;23.014;2023-04-30T09:21:00;100957.38;;;27.25;34.04
42725;BME280;28369;44.046;23.014;2023-04-30T09:23:29;100864.00;;;25.73;34.61
42725;BME280;28369;44.046;23.014;2023-04-30T09:25:55;100947.09;;;27.46;33.79
42725;BME280;28369;44.046;23.014;2023-04-30T09:28:22;100921.13;;;27.21;34.00
42725;BME280;28369;44.046;23.014;2023-04-30T09:30:50;100872.59;;;26.49;33.58
42725;BME280;28369;44.046;23.014;2023-04-30T09:33:15;100919.00;;;27.12;33.20
42725;BME280;28369;44.046;23.014;2023-04-30T09:35:41;100874.88;;;27.06;33.12
42725;BME280;28369;44.046;23.014;2023-04-30T09:38:07;100950.13;;;27.97;32.12
42725;BME280;28369;44.046;23.014;2023-04-30T09:40:49;100921.59;;;27.77;32.61
42725;BME280;28369;44.046;23.014;2023-04-30T09:43:14;100939.53;;;28.19;32.45
42725;BME280;28369;44.046;23.014;2023-04-30T09:45:44;100759.53;;;27.49;31.96
42725;BME280;28369;44.046;23.014;2023-04-30T09:48:21;100894.38;;;27.44;31.96
42725;BME280;28369;44.046;23.014;2023-04-30T09:50:50;100776.72;;;26.95;32.36
42725;BME280;28369;44.046;23.014;2023-04-30T09:53:17;100922.34;;;27.61;31.38
42725;BME280;28369;44.046;23.014;2023-04-30T09:55:44;100890.13;;;28.36;31.07
42725;BME280;28369;44.046;23.014;2023-04-30T09:58:11;100775.97;;;27.88;31.55
42725;BME280;28369;44.046;23.014;2023-04-30T10:00:37;100868.19;;;27.20;31.62
42725;BME280;28369;44.046;23.014;2023-04-30T10:03:08;100809.66;;;27.97;30.39
42725;BME280;28369;44.046;23.014;2023-04-30T10:05:45;100874.09;;;28.46;30.20
42725;BME280;28369;44.046;23.014;2023-04-30T10:08:25;100891.19;;;27.82;31.42
42725;BME280;28369;44.046;23.014;2023-04-30T10:11:02;100864.25;;;28.69;29.93
42725;BME280;28369;44.046;23.014;2023-04-30T10:13:50;100902.09;;;29.54;28.93
42725;BME280;28369;44.046;23.014;2023-04-30T10:19:24;100856.63;;;28.83;28.39
42725;BME280;28369;44.046;23.014;2023-04-30T10:21:50;100883.53;;;29.40;28.41
42725;BME280;28369;44.046;23.014;2023-04-30T10:24:18;100881.78;;;28.37;30.11
42725;BME280;28369;44.046;23.014;2023-04-30T10:26:46;100897.06;;;29.40;29.35
42725;BME280;28369;44.046;23.014;2023-04-30T10:29:12;100865.97;;;29.26;28.17
42725;BME280;28369;44.046;23.014;2023-04-30T10:31:40;100814.50;;;28.87;28.51
42725;BME280;28369;44.046;23.014;2023-04-30T10:36:59;100852.84;;;29.35;27.30
42725;BME280;28369;44.046;23.014;2023-04-30T10:39:28;100862.91;;;29.78;26.89
42725;BME280;28369;44.046;23.014;2023-04-30T10:42:09;100889.16;;;29.78;27.78
42725;BME280;28369;44.046;23.014;2023-04-30T10:44:38;100622.50;;;27.85;27.11
42725;BME280;28369;44.046;23.014;2023-04-30T10:47:05;100818.38;;;29.91;25.70
42725;BME280;28369;44.046;23.014;2023-04-30T10:49:31;100830.25;;;30.40;24.68
42725;BME280;28369;44.046;23.014;2023-04-30T10:51:58;100839.84;;;30.80;25.85
42725;BME280;28369;44.046;23.014;2023-04-30T10:54:29;100703.53;;;29.70;25.12
42725;BME280;28369;44.046;23.014;2023-04-30T10:57:08;100853.53;;;30.95;25.03
42725;BME280;28369;44.046;23.014;2023-04-30T10:59:35;100815.38;;;30.70;24.66
42725;BME280;28369;44.046;23.014;2023-04-30T11:02:01;100762.75;;;30.11;24.10
42725;BME280;28369;44.046;23.014;2023-04-30T11:04:27;100800.69;;;30.38;25.06
42725;BME280;28369;44.046;23.014;2023-04-30T11:07:08;100866.13;;;30.74;25.28
42725;BME280;28369;44.046;23.014;2023-04-30T11:09:42;100653.97;;;29.70;25.15
42725;BME280;28369;44.046;23.014;2023-04-30T11:12:25;100672.91;;;30.29;25.14
42725;BME280;28369;44.046;23.014;2023-04-30T11:15:20;100851.44;;;31.45;24.96
42725;BME280;28369;44.046;23.014;2023-04-30T11:17:49;100725.00;;;30.64;26.15
42725;BME280;28369;44.046;23.014;2023-04-30T11:20:19;100813.53;;;30.80;24.93
42725;BME280;28369;44.046;23.014;2023-04-30T11:22:45;100768.16;;;30.71;25.27
42725;BME280;28369;44.046;23.014;2023-04-30T11:25:12;100689.06;;;30.99;25.42
42725;BME280;28369;44.046;23.014;2023-04-30T11:27:41;100747.91;;;31.31;25.05
42725;BME280;28369;44.046;23.014;2023-04-30T11:30:13;100804.69;;;31.43;24.68
42725;BME280;28369;44.046;23.014;2023-04-30T11:32:40;100842.75;;;31.53;25.62
42725;BME280;28369;44.046;23.014;2023-04-30T11:35:06;100794.19;;;30.39;26.93
42725;BME280;28369;44.046;23.014;2023-04-30T11:37:37;100795.25;;;31.03;26.26
42725;BME280;28369;44.046;23.014;2023-04-30T11:40:05;100841.50;;;31.61;26.16
42725;BME280;28369;44.046;23.014;2023-04-30T11:42:32;100747.06;;;31.31;25.82
42725;BME280;28369;44.046;23.014;2023-04-30T11:45:08;100832.72;;;31.54;26.65
42725;BME280;28369;44.046;23.014;2023-04-30T11:47:52;100740.47;;;31.11;26.04
42725;BME280;28369;44.046;23.014;2023-04-30T11:50:21;100806.31;;;31.34;26.34
42725;BME280;28369;44.046;23.014;2023-04-30T11:52:52;100685.63;;;31.09;26.25
42725;BME280;28369;44.046;23.014;2023-04-30T11:55:20;100688.38;;;31.14;25.95
42725;BME280;28369;44.046;23.014;2023-04-30T11:57:48;100727.44;;;31.08;26.24
42725;BME280;28369;44.046;23.014;2023-04-30T12:00:18;100813.16;;;31.52;24.67
42725;BME280;28369;44.046;23.014;2023-04-30T12:02:46;100649.09;;;29.99;26.10
42725;BME280;28369;44.046;23.014;2023-04-30T12:07:50;100772.78;;;31.13;26.20
42725;BME280;28369;44.046;23.014;2023-04-30T12:10:20;100764.25;;;30.99;26.35
42725;BME280;28369;44.046;23.014;2023-04-30T12:12:47;100696.06;;;30.42;26.79
42725;BME280;28369;44.046;23.014;2023-04-30T12:15:16;100758.81;;;31.52;25.81
42725;BME280;28369;44.046;23.014;2023-04-30T12:17:43;100792.53;;;31.56;24.91
42725;BME280;28369;44.046;23.014;2023-04-30T12:20:10;100710.78;;;30.94;24.67
42725;BME280;28369;44.046;23.014;2023-04-30T12:22:36;100770.50;;;30.99;24.30
42725;BME280;28369;44.046;23.014;2023-04-30T12:25:07;100692.72;;;30.30;24.63
42725;BME280;28369;44.046;23.014;2023-04-30T12:27:35;100790.44;;;30.78;24.82
42725;BME280;28369;44.046;23.014;2023-04-30T12:30:08;100523.16;;;29.14;24.92
42725;BME280;28369;44.046;23.014;2023-04-30T12:32:44;100593.84;;;29.73;25.69
42725;BME280;28369;44.046;23.014;2023-04-30T12:35:18;100592.75;;;30.01;25.28
42725;BME280;28369;44.046;23.014;2023-04-30T12:37:47;100738.56;;;31.12;24.91
42725;BME280;28369;44.046;23.014;2023-04-30T12:40:14;100725.66;;;30.87;25.30
42725;BME280;28369;44.046;23.014;2023-04-30T12:42:43;100593.75;;;30.80;25.26
42725;BME280;28369;44.046;23.014;2023-04-30T12:45:11;100556.53;;;30.71;24.62
42725;BME280;28369;44.046;23.014;2023-04-30T12:47:39;100770.72;;;32.55;24.67
42725;BME280;28369;44.046;23.014;2023-04-30T12:50:14;100710.91;;;32.30;23.72
42725;BME280;28369;44.046;23.014;2023-04-30T12:52:40;100724.75;;;32.33;23.06
42725;BME280;28369;44.046;23.014;2023-04-30T12:55:19;100765.56;;;32.54;21.68
42725;BME280;28369;44.046;23.014;2023-04-30T12:58:11;100756.84;;;32.78;22.90
42725;BME280;28369;44.046;23.014;2023-04-30T13:00:45;100742.97;;;32.28;23.23
42725;BME280;28369;44.046;23.014;2023-04-30T13:03:11;100724.75;;;32.49;23.37